Observation data for Brownfield on 09/25/2019      Previous  Date       Current Mesonet Observations  Soil Data  Daily Summary Page  Observations in Plain Language
KBWS 250500Z 21006KT 23/18 A2995 RMK A01 T02300181  RH  078%=      5-min Rain = 0
KBWS 250505Z 22006KT 23/18 A2994 RMK A01 T02290181  RH  078%=      5-min Rain = 0
KBWS 250510Z 22006KT 23/18 A2994 RMK A01 T02270181  RH  080%=      5-min Rain = 0
KBWS 250515Z 22006KT 23/18 A2994 RMK A01 T02250182  RH  081%=      5-min Rain = 0
KBWS 250520Z 22005KT 22/18 A2994 RMK A01 T02230182  RH  082%=      5-min Rain = 0
KBWS 250525Z 22005KT 22/18 A2994 RMK A01 T02210182  RH  083%=      5-min Rain = 0
KBWS 250530Z 22005KT 22/18 A2994 RMK A01 T02190183  RH  084%=      5-min Rain = 0
KBWS 250535Z 21005KT 22/18 A2994 RMK A01 T02170182  RH  085%=      5-min Rain = 0
KBWS 250540Z 21006KT 22/18 A2994 RMK A01 T02160183  RH  086%=      5-min Rain = 0
KBWS 250545Z 21006KT 22/18 A2994 RMK A01 T02150183  RH  087%=      5-min Rain = 0
KBWS 250550Z 21006KT 21/18 A2994 RMK A01 T02130184  RH  088%=      5-min Rain = 0
KBWS 250555Z 22006KT 21/18 A2994 RMK A01 T02140184  RH  088%=      5-min Rain = 0
KBWS 250600Z 22006KT 21/18 A2994 RMK A01 T02140184  RH  087%=      5-min Rain = 0
KBWS 250605Z 22006KT 22/18 A2994 RMK A01 T02150184  RH  087%=      5-min Rain = 0
KBWS 250610Z 22006KT 22/18 A2994 RMK A01 T02150184  RH  087%=      5-min Rain = 0
KBWS 250615Z 22005KT 21/18 A2994 RMK A01 T02140184  RH  088%=      5-min Rain = 0
KBWS 250620Z 22005KT 21/19 A2994 RMK A01 T02130185  RH  089%=      5-min Rain = 0
KBWS 250625Z 22004KT 21/19 A2994 RMK A01 T02120185  RH  089%=      5-min Rain = 0
KBWS 250630Z 22005KT 21/19 A2994 RMK A01 T02120185  RH  089%=      5-min Rain = 0
KBWS 250635Z 22005KT 21/19 A2994 RMK A01 T02120186  RH  090%=      5-min Rain = 0
KBWS 250640Z 22006KT 21/19 A2994 RMK A01 T02120186  RH  090%=      5-min Rain = 0
KBWS 250645Z 22006KT 21/19 A2994 RMK A01 T02120186  RH  090%=      5-min Rain = 0
KBWS 250650Z 22005KT 21/19 A2994 RMK A01 T02120186  RH  090%=      5-min Rain = 0
KBWS 250655Z 22005KT 21/19 A2994 RMK A01 T02120185  RH  089%=      5-min Rain = 0
KBWS 250700Z 23005KT 21/19 A2995 RMK A01 T02120186  RH  090%=      5-min Rain = 0
KBWS 250705Z 23004KT 21/19 A2995 RMK A01 T02110185  RH  090%=      5-min Rain = 0
KBWS 250710Z 22004KT 21/19 A2994 RMK A01 T02100185  RH  091%=      5-min Rain = 0
KBWS 250715Z 22004KT 21/19 A2994 RMK A01 T02080185  RH  092%=      5-min Rain = 0
KBWS 250720Z 21005KT 21/19 A2994 RMK A01 T02070186  RH  092%=      5-min Rain = 0
KBWS 250725Z 21005KT 21/19 A2994 RMK A01 T02070185  RH  092%=      5-min Rain = 0
KBWS 250730Z 21004KT 21/19 A2994 RMK A01 T02070185  RH  092%=      5-min Rain = 0
KBWS 250735Z 22004KT 21/18 A2994 RMK A01 T02070184  RH  091%=      5-min Rain = 0
KBWS 250740Z 22005KT 21/18 A2994 RMK A01 T02070183  RH  091%=      5-min Rain = 0
KBWS 250745Z 21005KT 21/18 A2994 RMK A01 T02060183  RH  091%=      5-min Rain = 0
KBWS 250750Z 21005KT 21/18 A2993 RMK A01 T02050182  RH  092%=      5-min Rain = 0
KBWS 250755Z 22005KT 21/18 A2993 RMK A01 T02050182  RH  091%=      5-min Rain = 0
KBWS 250800Z 21005KT 21/18 A2993 RMK A01 T02050181  RH  091%=      5-min Rain = 0
KBWS 250805Z 21004KT 20/18 A2993 RMK A01 T02040181  RH  091%=      5-min Rain = 0
KBWS 250810Z 21004KT 20/18 A2993 RMK A01 T02040181  RH  091%=      5-min Rain = 0
KBWS 250815Z 21004KT 20/18 A2993 RMK A01 T02040181  RH  092%=      5-min Rain = 0
KBWS 250820Z 21004KT 20/18 A2993 RMK A01 T02040181  RH  092%=      5-min Rain = 0
KBWS 250825Z 21004KT 20/18 A2993 RMK A01 T02030181  RH  092%=      5-min Rain = 0
KBWS 250830Z 21004KT 20/18 A2993 RMK A01 T02030181  RH  092%=      5-min Rain = 0
KBWS 250835Z 20004KT 20/18 A2993 RMK A01 T02030182  RH  092%=      5-min Rain = 0
KBWS 250840Z 20004KT 20/18 A2993 RMK A01 T02030182  RH  093%=      5-min Rain = 0
KBWS 250845Z 21004KT 20/18 A2993 RMK A01 T02030182  RH  093%=      5-min Rain = 0
KBWS 250850Z 21004KT 20/18 A2992 RMK A01 T02030182  RH  093%=      5-min Rain = 0
KBWS 250855Z 18004KT 20/18 A2992 RMK A01 T02040184  RH  093%=      5-min Rain = 0
KBWS 250900Z 18003KT 20/18 A2992 RMK A01 T02030183  RH  093%=      5-min Rain = 0
KBWS 250905Z 16004KT 20/18 A2992 RMK A01 T02030183  RH  093%=      5-min Rain = 0
KBWS 250910Z 16004KT 20/18 A2992 RMK A01 T02020183  RH  093%=      5-min Rain = 0
KBWS 250915Z 16004KT 20/18 A2992 RMK A01 T02020182  RH  093%=      5-min Rain = 0
KBWS 250920Z 17004KT 20/18 A2992 RMK A01 T02020181  RH  093%=      5-min Rain = 0
KBWS 250925Z 17005KT 20/18 A2992 RMK A01 T02010181  RH  093%=      5-min Rain = 0
KBWS 250930Z 17005KT 20/18 A2992 RMK A01 T02010182  RH  094%=      5-min Rain = 0
KBWS 250935Z 17005KT 20/18 A2992 RMK A01 T02010181  RH  093%=      5-min Rain = 0
KBWS 250940Z 17004KT 20/18 A2992 RMK A01 T02010181  RH  093%=      5-min Rain = 0
KBWS 250945Z 18004KT 20/18 A2993 RMK A01 T02000180  RH  093%=      5-min Rain = 0
KBWS 250950Z 19003KT 20/18 A2993 RMK A01 T02000180  RH  093%=      5-min Rain = 0
KBWS 250955Z 20003KT 20/18 A2993 RMK A01 T02010180  RH  092%=      5-min Rain = 0
KBWS 251000Z 23003KT 20/18 A2993 RMK A01 T02010179  RH  092%=      5-min Rain = 0
KBWS 251005Z 22003KT 20/18 A2993 RMK A01 T01990178  RH  092%=      5-min Rain = 0
KBWS 251010Z 22004KT 20/18 A2993 RMK A01 T02000178  RH  092%=      5-min Rain = 0
KBWS 251015Z 22005KT 20/18 A2994 RMK A01 T02020177  RH  090%=      5-min Rain = 0
KBWS 251020Z 21006KT 20/18 A2994 RMK A01 T02020177  RH  090%=      5-min Rain = 0
KBWS 251025Z 21006KT 20/18 A2994 RMK A01 T02000178  RH  092%=      5-min Rain = 0
KBWS 251030Z 20006KT 20/18 A2994 RMK A01 T01990178  RH  092%=      5-min Rain = 0
KBWS 251035Z 20007KT 20/18 A2994 RMK A01 T02000178  RH  091%=      5-min Rain = 0
KBWS 251040Z 19007KT 20/18 A2993 RMK A01 T02010178  RH  091%=      5-min Rain = 0
KBWS 251045Z 20007KT 20/18 A2994 RMK A01 T02010177  RH  090%=      5-min Rain = 0
KBWS 251050Z 20007KT 20/18 A2994 RMK A01 T02020176  RH  090%=      5-min Rain = 0
KBWS 251055Z 20006KT 20/18 A2994 RMK A01 T02020176  RH  089%=      5-min Rain = 0
KBWS 251100Z 20006KT 20/18 A2994 RMK A01 T02010176  RH  090%=      5-min Rain = 0
KBWS 251105Z 21006KT 20/18 A2994 RMK A01 T02000176  RH  090%=      5-min Rain = 0
KBWS 251110Z 21006KT 20/18 A2994 RMK A01 T01990175  RH  090%=      5-min Rain = 0
KBWS 251115Z 20006KT 20/17 A2994 RMK A01 T01990174  RH  090%=      5-min Rain = 0
KBWS 251120Z 21006KT 20/17 A2994 RMK A01 T01990174  RH  089%=      5-min Rain = 0
KBWS 251125Z 21006KT 20/17 A2994 RMK A01 T02010173  RH  088%=      5-min Rain = 0
KBWS 251130Z 20006KT 20/17 A2994 RMK A01 T02010173  RH  088%=      5-min Rain = 0
KBWS 251135Z 21006KT 20/17 A2994 RMK A01 T02000173  RH  089%=      5-min Rain = 0
KBWS 251140Z 21006KT 20/17 A2994 RMK A01 T02000173  RH  089%=      5-min Rain = 0
KBWS 251145Z 22007KT 20/17 A2994 RMK A01 T02010173  RH  088%=      5-min Rain = 0
KBWS 251150Z 21006KT 20/17 A2994 RMK A01 T02010173  RH  088%=      5-min Rain = 0
KBWS 251155Z 21006KT 20/17 A2994 RMK A01 T02010173  RH  088%=      5-min Rain = 0
KBWS 251200Z 20006KT 20/17 A2994 RMK A01 T01980173  RH  090%=      5-min Rain = 0
KBWS 251205Z 21005KT 20/17 A2994 RMK A01 T01970173  RH  090%=      5-min Rain = 0
KBWS 251210Z 23004KT 20/17 A2994 RMK A01 T01960172  RH  091%=      5-min Rain = 0
KBWS 251215Z 27005KT 20/17 A2995 RMK A01 T01950172  RH  091%=      5-min Rain = 0
KBWS 251220Z 29005KT 19/17 A2995 RMK A01 T01940173  RH  092%=      5-min Rain = 0
KBWS 251225Z 23005KT 20/17 A2994 RMK A01 T01960173  RH  091%=      5-min Rain = 0
KBWS 251230Z 21005KT 20/17 A2994 RMK A01 T01990172  RH  089%=      5-min Rain = 0
KBWS 251235Z 20005KT 20/17 A2994 RMK A01 T01980172  RH  090%=      5-min Rain = 0
KBWS 251240Z 20005KT 20/17 A2994 RMK A01 T01960172  RH  090%=      5-min Rain = 0
KBWS 251245Z 20005KT 20/17 A2994 RMK A01 T01950172  RH  091%=      5-min Rain = 0
KBWS 251250Z 20004KT 19/17 A2994 RMK A01 T01940172  RH  091%=      5-min Rain = 0
KBWS 251255Z 19004KT 19/17 A2994 RMK A01 T01940172  RH  092%=      5-min Rain = 0
KBWS 251300Z 20005KT 19/17 A2994 RMK A01 T01940173  RH  092%=      5-min Rain = 0
KBWS 251305Z 20004KT 20/17 A2994 RMK A01 T01950173  RH  092%=      5-min Rain = 0
KBWS 251310Z 23003KT 20/17 A2994 RMK A01 T01970174  RH  091%=      5-min Rain = 0
KBWS 251315Z 24004KT 20/18 A2994 RMK A01 T01990175  RH  090%=      5-min Rain = 0
KBWS 251320Z 23003KT 20/18 A2994 RMK A01 T02030176  RH  089%=      5-min Rain = 0
KBWS 251325Z 25003KT 21/18 A2995 RMK A01 T02070177  RH  087%=      5-min Rain = 0
KBWS 251330Z 25004KT 21/18 A2995 RMK A01 T02090177  RH  086%=      5-min Rain = 0
KBWS 251335Z 25004KT 21/18 A2995 RMK A01 T02110177  RH  086%=      5-min Rain = 0
KBWS 251340Z 22004KT 21/18 A2995 RMK A01 T02110177  RH  085%=      5-min Rain = 0
KBWS 251345Z 22004KT 21/18 A2995 RMK A01 T02130179  RH  085%=      5-min Rain = 0
KBWS 251350Z 22005KT 22/18 A2995 RMK A01 T02150179  RH  084%=      5-min Rain = 0
KBWS 251355Z 23004KT 22/18 A2995 RMK A01 T02180180  RH  083%=      5-min Rain = 0
KBWS 251400Z 23005KT 22/18 A2995 RMK A01 T02210180  RH  082%=      5-min Rain = 0
KBWS 251405Z 23005KT 22/18 A2995 RMK A01 T02230179  RH  080%=      5-min Rain = 0
KBWS 251410Z 23006KT 23/18 A2996 RMK A01 T02250180  RH  080%=      5-min Rain = 0
KBWS 251415Z 24006KT 23/18 A2996 RMK A01 T02270181  RH  079%=      5-min Rain = 0
KBWS 251420Z 24006KT 23/18 A2996 RMK A01 T02300182  RH  078%=      5-min Rain = 0
KBWS 251425Z 23006KT 23/18 A2996 RMK A01 T02330184  RH  078%=      5-min Rain = 0
KBWS 251430Z 24008KT 24/18 A2996 RMK A01 T02350184  RH  077%=      5-min Rain = 0
KBWS 251435Z 23009KT 24/18 A2996 RMK A01 T02370183  RH  076%=      5-min Rain = 0
KBWS 251440Z 23009KT 24/18 A2996 RMK A01 T02370184  RH  076%=      5-min Rain = 0
KBWS 251445Z 23007KT 24/19 A2996 RMK A01 T02410187  RH  076%=      5-min Rain = 0
KBWS 251450Z 23007KT 24/19 A2996 RMK A01 T02430186  RH  075%=      5-min Rain = 0
KBWS 251455Z 23007KT 25/19 A2996 RMK A01 T02460188  RH  074%=      5-min Rain = 0
KBWS 251500Z 23007KT 25/19 A2996 RMK A01 T02480187  RH  073%=      5-min Rain = 0
KBWS 251505Z 21008KT 25/19 A2997 RMK A01 T02490187  RH  072%=      5-min Rain = 0
KBWS 251510Z 22009KT 25/18 A2997 RMK A01 T02490184  RH  071%=      5-min Rain = 0
KBWS 251515Z 22009KT 25/18 A2997 RMK A01 T02520183  RH  069%=      5-min Rain = 0
KBWS 251520Z 22009KT 25/18 A2997 RMK A01 T02540184  RH  069%=      5-min Rain = 0
KBWS 251525Z 22008KT 26/18 A2997 RMK A01 T02560183  RH  068%=      5-min Rain = 0
KBWS 251530Z 23007KT 26/18 A2997 RMK A01 T02580184  RH  067%=      5-min Rain = 0
KBWS 251535Z 23008KT 26/18 A2997 RMK A01 T02610181  RH  065%=      5-min Rain = 0
KBWS 251540Z 21008KT 26/18 A2997 RMK A01 T02620179  RH  064%=      5-min Rain = 0
KBWS 251545Z 22007KT 26/18 A2997 RMK A01 T02640182  RH  064%=      5-min Rain = 0
KBWS 251550Z 20008KT 27/18 A2998 RMK A01 T02670182  RH  063%=      5-min Rain = 0
KBWS 251555Z 21008KT 27/18 A2998 RMK A01 T02680179  RH  061%=      5-min Rain = 0
KBWS 251600Z 21007KT 27/18 A2998 RMK A01 T02700179  RH  061%=      5-min Rain = 0
KBWS 251605Z 21007KT 27/18 A2998 RMK A01 T02720178  RH  060%=      5-min Rain = 0
KBWS 251610Z 21007KT 27/18 A2998 RMK A01 T02730179  RH  060%=      5-min Rain = 0
KBWS 251615Z 20008KT 27/18 A2998 RMK A01 T02740179  RH  059%=      5-min Rain = 0
KBWS 251620Z 20008KT 27/18 A2997 RMK A01 T02740176  RH  058%=      5-min Rain = 0
KBWS 251625Z 20007KT 28/18 A2998 RMK A01 T02750177  RH  058%=      5-min Rain = 0
KBWS 251630Z 20007KT 28/18 A2998 RMK A01 T02760175  RH  057%=      5-min Rain = 0
KBWS 251635Z 21007KT 28/18 A2998 RMK A01 T02760175  RH  057%=      5-min Rain = 0
KBWS 251640Z 20008KT 28/18 A2998 RMK A01 T02790178  RH  057%=      5-min Rain = 0
KBWS 251645Z 20007KT 28/18 A2998 RMK A01 T02800177  RH  056%=      5-min Rain = 0
KBWS 251650Z 20007KT 28/18 A2998 RMK A01 T02800176  RH  056%=      5-min Rain = 0
KBWS 251655Z 20008KT 28/18 A2998 RMK A01 T02810178  RH  056%=      5-min Rain = 0
KBWS 251700Z 20008KT 28/18 A2998 RMK A01 T02820177  RH  056%=      5-min Rain = 0
KBWS 251705Z 20007KT 28/18 A2998 RMK A01 T02810176  RH  055%=      5-min Rain = 0
KBWS 251710Z 22007KT 28/18 A2998 RMK A01 T02840177  RH  055%=      5-min Rain = 0
KBWS 251715Z 21007KT 29/18 A2998 RMK A01 T02850178  RH  055%=      5-min Rain = 0
KBWS 251720Z 20007KT 29/18 A2998 RMK A01 T02880181  RH  055%=      5-min Rain = 0
KBWS 251725Z 21007KT 29/18 A2998 RMK A01 T02900184  RH  056%=      5-min Rain = 0
KBWS 251730Z 22006G13KT 29/18 A2998 RMK A01 T02890180  RH  055%=      5-min Rain = 0
KBWS 251735Z 22006KT 29/18 A2997 RMK A01 T02910179  RH  054%=      5-min Rain = 0
KBWS 251740Z 18005KT 29/18 A2997 RMK A01 T02900178  RH  054%=      5-min Rain = 0
KBWS 251745Z 21006KT 29/18 A2997 RMK A01 T02920180  RH  054%=      5-min Rain = 0
KBWS 251750Z 20006G11KT 29/18 A2997 RMK A01 T02920178  RH  053%=      5-min Rain = 0
KBWS 251755Z 21006KT 29/18 A2997 RMK A01 T02920176  RH  052%=      5-min Rain = 0
KBWS 251800Z 20005KT 30/18 A2997 RMK A01 T02950179  RH  052%=      5-min Rain = 0
KBWS 251805Z 20004KT 30/18 A2997 RMK A01 T02970180  RH  052%=      5-min Rain = 0
KBWS 251810Z 19006KT 30/18 A2997 RMK A01 T02970180  RH  052%=      5-min Rain = 0
KBWS 251815Z 19006KT 30/18 A2997 RMK A01 T02990179  RH  051%=      5-min Rain = 0
KBWS 251820Z 19005G10KT 30/18 A2996 RMK A01 T02990176  RH  050%=      5-min Rain = 0
KBWS 251825Z 19005KT 30/18 A2996 RMK A01 T02980176  RH  050%=      5-min Rain = 0
KBWS 251830Z 22004KT 30/18 A2996 RMK A01 T03010177  RH  050%=      5-min Rain = 0
KBWS 251835Z 20005KT 30/18 A2996 RMK A01 T03020177  RH  050%=      5-min Rain = 0
KBWS 251840Z 12002KT 30/17 A2996 RMK A01 T03040174  RH  048%=      5-min Rain = 0
KBWS 251845Z 18004KT 31/18 A2995 RMK A01 T03060177  RH  048%=      5-min Rain = 0
KBWS 251850Z 19006KT 30/17 A2995 RMK A01 T03040172  RH  047%=      5-min Rain = 0
KBWS 251855Z 18006KT 31/17 A2995 RMK A01 T03050172  RH  047%=      5-min Rain = 0
KBWS 251900Z 16005KT 31/17 A2995 RMK A01 T03070171  RH  046%=      5-min Rain = 0
KBWS 251905Z 20003KT 31/17 A2994 RMK A01 T03070169  RH  046%=      5-min Rain = 0
KBWS 251910Z 18003G8KT 31/17 A2994 RMK A01 T03090169  RH  045%=      5-min Rain = 0
KBWS 251915Z 18005KT 31/17 A2994 RMK A01 T03080171  RH  046%=      5-min Rain = 0
KBWS 251920Z 17004KT 31/17 A2994 RMK A01 T03100170  RH  045%=      5-min Rain = 0
KBWS 251925Z 20004KT 31/17 A2994 RMK A01 T03120172  RH  045%=      5-min Rain = 0
KBWS 251930Z 22003KT 31/17 A2994 RMK A01 T03110169  RH  045%=      5-min Rain = 0
KBWS 251935Z 23004KT 31/17 A2994 RMK A01 T03100167  RH  044%=      5-min Rain = 0
KBWS 251940Z 21003KT 31/17 A2993 RMK A01 T03120165  RH  043%=      5-min Rain = 0
KBWS 251945Z 15003KT 32/17 A2993 RMK A01 T03160167  RH  043%=      5-min Rain = 0
KBWS 251950Z 20006KT 32/17 A2993 RMK A01 T03160167  RH  043%=      5-min Rain = 0
KBWS 251955Z 23004KT 32/17 A2993 RMK A01 T03150165  RH  043%=      5-min Rain = 0
KBWS 252000Z 25004KT 32/17 A2993 RMK A01 T03180170  RH  043%=      5-min Rain = 0
KBWS 252005Z 19005KT 32/17 A2993 RMK A01 T03180170  RH  043%=      5-min Rain = 0
KBWS 252010Z 20003KT 32/17 A2992 RMK A01 T03190172  RH  044%=      5-min Rain = 0
KBWS 252015Z 16006G11KT 32/17 A2992 RMK A01 T03200171  RH  043%=      5-min Rain = 0
KBWS 252020Z 16007KT 32/17 A2992 RMK A01 T03190167  RH  042%=      5-min Rain = 0
KBWS 252025Z 17005G10KT 32/17 A2992 RMK A01 T03160166  RH  042%=      5-min Rain = 0
KBWS 252030Z 12003KT 32/17 A2992 RMK A01 T03160167  RH  043%=      5-min Rain = 0
KBWS 252035Z 12006KT 31/17 A2992 RMK A01 T03130167  RH  044%=      5-min Rain = 0
KBWS 252040Z 17008KT 32/17 A2992 RMK A01 T03180167  RH  042%=      5-min Rain = 0
KBWS 252045Z 17007KT 32/17 A2991 RMK A01 T03220169  RH  042%=      5-min Rain = 0
KBWS 252050Z 17005G10KT 32/17 A2991 RMK A01 T03190166  RH  042%=      5-min Rain = 0
KBWS 252055Z 18007KT 32/17 A2991 RMK A01 T03190167  RH  042%=      5-min Rain = 0
KBWS 252100Z 17006KT 32/16 A2991 RMK A01 T03210163  RH  041%=      5-min Rain = 0
KBWS 252105Z 17008KT 32/16 A2991 RMK A01 T03150163  RH  042%=      5-min Rain = 0
KBWS 252110Z 16006KT 31/16 A2991 RMK A01 T03100158  RH  042%=      5-min Rain = 0
KBWS 252115Z 18002KT 31/16 A2991 RMK A01 T03090156  RH  042%=      5-min Rain = 0
KBWS 252120Z 21004KT 31/16 A2991 RMK A01 T03080163  RH  044%=      5-min Rain = 0
KBWS 252125Z 21005KT 31/16 A2991 RMK A01 T03060159  RH  043%=      5-min Rain = 0
KBWS 252130Z 19003KT 31/16 A299 RMK A01 T03060162  RH  044%=      5-min Rain = 0
KBWS 252135Z 17003KT 31/17 A299 RMK A01 T03110167  RH  044%=      5-min Rain = 0
KBWS 252140Z 16003KT 31/16 A299 RMK A01 T03130160  RH  042%=      5-min Rain = 0
KBWS 252145Z 18006KT 32/17 A299 RMK A01 T03170171  RH  044%=      5-min Rain = 0
KBWS 252150Z 17005KT 31/16 A299 RMK A01 T03120164  RH  043%=      5-min Rain = 0
KBWS 252155Z 16008KT 31/17 A299 RMK A01 T03100167  RH  044%=      5-min Rain = 0
KBWS 252200Z 14008KT 31/17 A299 RMK A01 T03090168  RH  045%=      5-min Rain = 0
KBWS 252205Z 16005KT 31/16 A299 RMK A01 T03080164  RH  044%=      5-min Rain = 0
KBWS 252210Z 14006KT 31/17 A299 RMK A01 T03070169  RH  046%=      5-min Rain = 0
KBWS 252215Z 16008KT 31/17 A299 RMK A01 T03050169  RH  046%=      5-min Rain = 0
KBWS 252220Z 18006KT 30/17 A299 RMK A01 T03040169  RH  047%=      5-min Rain = 0
KBWS 252225Z 18004KT 30/17 A299 RMK A01 T03040166  RH  046%=      5-min Rain = 0
KBWS 252230Z 20006KT 30/17 A299 RMK A01 T03010173  RH  049%=      5-min Rain = 0
KBWS 252235Z 20005KT 30/17 A2991 RMK A01 T02970173  RH  050%=      5-min Rain = 0
KBWS 252240Z 26005KT 30/17 A2991 RMK A01 T02960172  RH  050%=      5-min Rain = 0
KBWS 252245Z 29005KT 29/17 A2991 RMK A01 T02900173  RH  052%=      5-min Rain = 0
KBWS 252250Z 29007G13KT 29/18 A2991 RMK A01 T02860176  RH  054%=      5-min Rain = 0
KBWS 252255Z 29007KT 28/18 A2991 RMK A01 T02800176  RH  056%=      5-min Rain = 0
KBWS 252300Z 28004KT 29/18 A2991 RMK A01 T02860178  RH  055%=      5-min Rain = 0
KBWS 252305Z 28004KT 29/18 A2991 RMK A01 T02920177  RH  053%=      5-min Rain = 0
KBWS 252310Z 29003KT 30/18 A2991 RMK A01 T02950179  RH  052%=      5-min Rain = 0
KBWS 252315Z 29003KT 30/18 A2991 RMK A01 T03010176  RH  050%=      5-min Rain = 0
KBWS 252320Z 28002KT 30/17 A2991 RMK A01 T03030174  RH  048%=      5-min Rain = 0
KBWS 252325Z 23002KT 31/17 A2991 RMK A01 T03070172  RH  047%=      5-min Rain = 0
KBWS 252330Z 20003KT 30/17 A2991 RMK A01 T03020172  RH  048%=      5-min Rain = 0
KBWS 252335Z 21002KT 30/17 A2991 RMK A01 T02980172  RH  049%=      5-min Rain = 0
KBWS 252340Z 21002KT 30/18 A2991 RMK A01 T02990179  RH  051%=      5-min Rain = 0
KBWS 252345Z 19003KT 30/17 A2991 RMK A01 T03000174  RH  049%=      5-min Rain = 0
KBWS 252350Z 19002KT 30/18 A2991 RMK A01 T02980176  RH  050%=      5-min Rain = 0
KBWS 252355Z 19002KT 30/18 A2991 RMK A01 T02950177  RH  052%=      5-min Rain = 0
KBWS 260000Z 16003KT 30/18 A2991 RMK A01 T02960181  RH  053%=      5-min Rain = 0
KBWS 260005Z 19005KT 29/18 A2991 RMK A01 T02920177  RH  053%=      5-min Rain = 0
KBWS 260010Z 20006KT 29/17 A2991 RMK A01 T02900173  RH  052%=      5-min Rain = 0
KBWS 260015Z 21005KT 29/18 A2991 RMK A01 T02860180  RH  056%=      5-min Rain = 0
KBWS 260020Z 21004KT 29/18 A2991 RMK A01 T02850182  RH  057%=      5-min Rain = 0
KBWS 260025Z 21005KT 28/18 A2991 RMK A01 T02820184  RH  058%=      5-min Rain = 0
KBWS 260030Z 21005KT 28/19 A2991 RMK A01 T02790185  RH  059%=      5-min Rain = 0
KBWS 260035Z 21005KT 28/19 A2991 RMK A01 T02750186  RH  062%=      5-min Rain = 0
KBWS 260040Z 20005KT 27/19 A2991 RMK A01 T02720185  RH  062%=      5-min Rain = 0
KBWS 260045Z 19004KT 27/18 A2991 RMK A01 T02710184  RH  062%=      5-min Rain = 0
KBWS 260050Z 19004KT 27/18 A2991 RMK A01 T02710184  RH  062%=      5-min Rain = 0
KBWS 260055Z 19004KT 27/19 A2992 RMK A01 T02700185  RH  063%=      5-min Rain = 0
KBWS 260100Z 18004KT 27/19 A2992 RMK A01 T02680189  RH  065%=      5-min Rain = 0
KBWS 260105Z 18004KT 27/19 A2992 RMK A01 T02650189  RH  067%=      5-min Rain = 0
KBWS 260110Z 17004KT 26/19 A2992 RMK A01 T02620189  RH  068%=      5-min Rain = 0
KBWS 260115Z 15003KT 26/19 A2992 RMK A01 T02580189  RH  069%=      5-min Rain = 0
KBWS 260120Z 15004KT 26/19 A2992 RMK A01 T02560186  RH  069%=      5-min Rain = 0
KBWS 260125Z 16004KT 26/19 A2992 RMK A01 T02560185  RH  068%=      5-min Rain = 0
KBWS 260130Z 16005KT 25/19 A2992 RMK A01 T02540186  RH  069%=      5-min Rain = 0
KBWS 260135Z 17005KT 25/19 A2993 RMK A01 T02530186  RH  070%=      5-min Rain = 0
KBWS 260140Z 16005KT 25/19 A2992 RMK A01 T02510186  RH  071%=      5-min Rain = 0
KBWS 260145Z 16005KT 25/19 A2993 RMK A01 T02480186  RH  072%=      5-min Rain = 0
KBWS 260150Z 16006KT 25/19 A2993 RMK A01 T02490187  RH  072%=      5-min Rain = 0
KBWS 260155Z 17005KT 25/19 A2993 RMK A01 T02480190  RH  074%=      5-min Rain = 0
KBWS 260200Z 17005KT 25/19 A2993 RMK A01 T02460191  RH  076%=      5-min Rain = 0
KBWS 260205Z 16005KT 24/19 A2993 RMK A01 T02440192  RH  077%=      5-min Rain = 0
KBWS 260210Z 13005KT 24/19 A2993 RMK A01 T02420192  RH  078%=      5-min Rain = 0
KBWS 260215Z 15005KT 24/19 A2994 RMK A01 T02410189  RH  077%=      5-min Rain = 0
KBWS 260220Z 15005KT 24/19 A2994 RMK A01 T02410189  RH  077%=      5-min Rain = 0
KBWS 260225Z 14005KT 24/19 A2994 RMK A01 T02390189  RH  078%=      5-min Rain = 0
KBWS 260230Z 14006KT 24/19 A2994 RMK A01 T02380189  RH  078%=      5-min Rain = 0
KBWS 260235Z 13007KT 24/19 A2994 RMK A01 T02380189  RH  078%=      5-min Rain = 0
KBWS 260240Z 15007KT 24/19 A2994 RMK A01 T02380186  RH  077%=      5-min Rain = 0
KBWS 260245Z 15007KT 24/18 A2994 RMK A01 T02400182  RH  074%=      5-min Rain = 0
KBWS 260250Z 16006KT 24/18 A2995 RMK A01 T02400181  RH  074%=      5-min Rain = 0
KBWS 260255Z 15006KT 24/18 A2995 RMK A01 T02390180  RH  074%=      5-min Rain = 0
KBWS 260300Z 15006KT 24/18 A2995 RMK A01 T02380179  RH  073%=      5-min Rain = 0
KBWS 260305Z 15006KT 24/18 A2995 RMK A01 T02380179  RH  073%=      5-min Rain = 0
KBWS 260310Z 14006KT 24/18 A2995 RMK A01 T02360180  RH  075%=      5-min Rain = 0
KBWS 260315Z 15006KT 24/18 A2995 RMK A01 T02350180  RH  075%=      5-min Rain = 0
KBWS 260320Z 16006KT 24/18 A2995 RMK A01 T02350181  RH  076%=      5-min Rain = 0
KBWS 260325Z 16006KT 23/18 A2995 RMK A01 T02330182  RH  077%=      5-min Rain = 0
KBWS 260330Z 16006KT 23/18 A2996 RMK A01 T02310184  RH  079%=      5-min Rain = 0
KBWS 260335Z 17006KT 23/19 A2996 RMK A01 T02280185  RH  081%=      5-min Rain = 0
KBWS 260340Z 17006KT 23/18 A2996 RMK A01 T02270184  RH  081%=      5-min Rain = 0
KBWS 260345Z 17006KT 23/18 A2996 RMK A01 T02280184  RH  081%=      5-min Rain = 0
KBWS 260350Z 17006KT 23/18 A2996 RMK A01 T02270184  RH  081%=      5-min Rain = 0
KBWS 260355Z 18005KT 23/18 A2996 RMK A01 T02260182  RH  080%=      5-min Rain = 0
KBWS 260400Z 16004KT 23/18 A2996 RMK A01 T02270183  RH  081%=      5-min Rain = 0
KBWS 260405Z 13004KT 22/18 A2996 RMK A01 T02230182  RH  082%=      5-min Rain = 0
KBWS 260410Z 16005KT 22/18 A2996 RMK A01 T02210181  RH  083%=      5-min Rain = 0
KBWS 260415Z 14005KT 22/18 A2996 RMK A01 T02220181  RH  082%=      5-min Rain = 0
KBWS 260420Z 18006KT 22/18 A2996 RMK A01 T02230179  RH  080%=      5-min Rain = 0
KBWS 260425Z 17007KT 23/18 A2997 RMK A01 T02260179  RH  079%=      5-min Rain = 0
KBWS 260430Z 17006KT 22/18 A2997 RMK A01 T02240180  RH  080%=      5-min Rain = 0
KBWS 260435Z 18008KT 22/18 A2996 RMK A01 T02220181  RH  082%=      5-min Rain = 0
KBWS 260440Z 18008KT 22/18 A2996 RMK A01 T02210179  RH  081%=      5-min Rain = 0
KBWS 260445Z 19008KT 22/18 A2996 RMK A01 T02210178  RH  081%=      5-min Rain = 0
KBWS 260450Z 20008KT 22/18 A2996 RMK A01 T02210176  RH  080%=      5-min Rain = 0
KBWS 260455Z 20007KT 22/17 A2996 RMK A01 T02220174  RH  078%=      5-min Rain = 0

Page generated in 0.0093 seconds.